createdAt,value
2022-09-11T00:02:40.418Z,6.13
2022-09-11T00:05:29.588Z,4.78
2022-09-11T00:08:21.256Z,4.35
2022-09-11T00:11:17.453Z,3.53
2022-09-11T00:14:05.904Z,5.38
2022-09-11T00:16:54.054Z,3.70
2022-09-11T00:19:42.764Z,5.43
2022-09-11T00:22:30.948Z,4.32
2022-09-11T00:25:19.081Z,4.10
2022-09-11T00:28:08.726Z,8.00
2022-09-11T00:31:01.585Z,4.18
2022-09-11T00:33:50.111Z,7.18
2022-09-11T00:36:41.363Z,7.20
2022-09-11T00:39:29.561Z,6.15
2022-09-11T00:42:17.698Z,4.82
2022-09-11T00:45:09.075Z,6.63
2022-09-11T00:48:00.607Z,7.75
2022-09-11T00:50:50.708Z,5.55
2022-09-11T00:53:39.441Z,6.70
2022-09-11T00:56:31.660Z,8.60
2022-09-11T00:59:25.216Z,5.15
2022-09-11T01:02:23.220Z,5.38
2022-09-11T01:05:16.436Z,6.03
2022-09-11T01:08:04.722Z,7.28
2022-09-11T01:11:03.347Z,5.38
2022-09-11T01:13:57.879Z,5.10
2022-09-11T01:16:53.251Z,7.25
2022-09-11T01:19:57.921Z,6.75
2022-09-11T01:22:59.855Z,8.48
2022-09-11T01:26:07.878Z,6.97
2022-09-11T01:29:03.214Z,5.35
2022-09-11T01:31:58.167Z,5.80
2022-09-11T01:34:52.707Z,6.55
2022-09-11T01:37:47.726Z,6.28
2022-09-11T01:40:45.892Z,7.20
2022-09-11T01:43:36.970Z,5.75
2022-09-11T01:46:29.005Z,9.77
2022-09-11T01:49:20.268Z,6.78
2022-09-11T01:52:13.840Z,10.75
2022-09-11T01:55:05.920Z,8.48
2022-09-11T01:57:57.436Z,9.70
2022-09-11T02:00:50.338Z,10.20
2022-09-11T02:03:43.107Z,7.97
2022-09-11T02:06:35.474Z,8.02
2022-09-11T02:09:27.530Z,10.63
2022-09-11T02:12:18.061Z,11.32
2022-09-11T02:15:06.997Z,7.70
2022-09-11T02:18:01.842Z,8.23
2022-09-11T02:20:52.840Z,9.35
2022-09-11T02:26:33.195Z,11.20
2022-09-11T02:29:22.118Z,9.27
2022-09-11T02:32:10.896Z,11.48
2022-09-11T02:34:59.548Z,9.00
2022-09-11T02:37:56.127Z,11.00
2022-09-11T02:40:53.100Z,9.75
2022-09-11T02:43:51.243Z,11.40
2022-09-11T02:46:55.403Z,10.50
2022-09-11T02:49:55.784Z,10.88
2022-09-11T02:52:54.966Z,10.90
2022-09-11T02:55:54.379Z,10.27
2022-09-11T02:58:47.875Z,13.93
2022-09-11T03:01:48.250Z,11.63
2022-09-11T03:04:37.260Z,12.35
2022-09-11T03:07:25.986Z,16.92
2022-09-11T03:10:15.661Z,34.72
2022-09-11T03:13:03.823Z,34.58
2022-09-11T03:15:52.008Z,39.47
2022-09-11T03:18:40.433Z,38.00
2022-09-11T03:21:28.561Z,34.92
2022-09-11T03:24:17.147Z,35.33
2022-09-11T03:27:06.945Z,26.80
2022-09-11T03:29:56.263Z,23.83
2022-09-11T03:32:44.387Z,20.20
2022-09-11T03:35:32.549Z,19.77
2022-09-11T03:38:20.911Z,19.65
2022-09-11T03:41:09.466Z,18.65
2022-09-11T03:43:58.952Z,19.92
2022-09-11T03:46:47.121Z,20.33
2022-09-11T03:49:35.387Z,21.80
2022-09-11T03:52:23.558Z,21.15
2022-09-11T03:55:12.373Z,23.42
2022-09-11T03:58:00.973Z,18.75
2022-09-11T04:00:50.583Z,22.75
2022-09-11T04:03:38.909Z,19.58
2022-09-11T04:06:27.108Z,19.73
2022-09-11T04:09:15.367Z,19.77
2022-09-11T04:12:03.852Z,24.85
2022-09-11T04:14:52.115Z,23.73
2022-09-11T04:17:41.908Z,26.65
2022-09-11T04:20:30.100Z,22.65
2022-09-11T04:23:18.256Z,24.15
2022-09-11T04:26:15.897Z,26.50
2022-09-11T04:29:04.126Z,25.60
2022-09-11T04:31:52.291Z,25.15
2022-09-11T04:34:42.200Z,23.13
2022-09-11T04:37:30.385Z,22.42
2022-09-11T04:40:18.633Z,21.83
2022-09-11T04:43:08.002Z,21.05
2022-09-11T04:46:01.654Z,21.83
2022-09-11T04:48:52.613Z,21.02
2022-09-11T04:54:30.250Z,22.90
2022-09-11T04:57:18.387Z,24.58
2022-09-11T05:00:08.235Z,27.38
2022-09-11T05:02:56.344Z,24.35
2022-09-11T05:05:44.487Z,26.13
2022-09-11T05:08:34.460Z,24.73
2022-09-11T05:11:22.808Z,23.77
2022-09-11T05:14:11.673Z,18.38
2022-09-11T05:17:01.513Z,18.65
2022-09-11T05:19:49.733Z,21.67
2022-09-11T05:22:37.876Z,20.75
2022-09-11T05:25:29.974Z,19.45
2022-09-11T05:28:18.123Z,20.10
2022-09-11T05:31:12.353Z,23.02
2022-09-11T05:34:01.360Z,23.67
2022-09-11T05:36:49.526Z,26.15
2022-09-11T05:39:37.778Z,26.00
2022-09-11T05:42:28.640Z,26.35
2022-09-11T05:45:16.973Z,28.58
2022-09-11T05:48:05.369Z,26.10
2022-09-11T05:50:54.037Z,26.27
2022-09-11T05:53:42.675Z,25.67
2022-09-11T05:56:31.469Z,27.00
2022-09-11T05:59:20.981Z,24.02
2022-09-11T06:02:11.634Z,25.02
2022-09-11T06:04:59.839Z,21.92
2022-09-11T06:07:47.991Z,23.15
2022-09-11T06:10:36.452Z,24.58
2022-09-11T06:13:24.747Z,26.00
2022-09-11T06:16:18.524Z,24.00
2022-09-11T06:19:07.665Z,28.88
2022-09-11T06:21:56.415Z,29.70
2022-09-11T06:24:47.513Z,25.60
2022-09-11T06:27:35.729Z,27.77
2022-09-11T06:30:23.877Z,30.42
2022-09-11T06:33:13.381Z,27.35
2022-09-11T06:36:03.983Z,23.85
2022-09-11T06:38:54.838Z,24.30
2022-09-11T06:41:43.877Z,24.23
2022-09-11T06:44:32.027Z,25.00
2022-09-11T06:47:20.777Z,25.60
2022-09-11T06:50:11.815Z,22.88
2022-09-11T06:52:59.985Z,19.98
2022-09-11T06:55:48.119Z,23.63
2022-09-11T06:58:36.531Z,23.27
2022-09-11T07:01:24.828Z,21.83
2022-09-11T07:04:13.080Z,24.30
2022-09-11T07:07:02.689Z,20.02
2022-09-11T07:09:50.861Z,22.30
2022-09-11T07:12:39.781Z,22.13
2022-09-11T07:15:27.958Z,24.38
2022-09-11T07:18:16.199Z,25.42
2022-09-11T07:21:08.253Z,20.85
2022-09-11T07:23:59.346Z,22.70
2022-09-11T07:26:47.500Z,21.83
2022-09-11T07:29:35.645Z,22.73
2022-09-11T07:32:24.016Z,25.08
2022-09-11T07:35:12.859Z,21.65
2022-09-11T07:38:01.012Z,23.73
2022-09-11T07:40:54.254Z,22.60
2022-09-11T07:43:45.538Z,24.75
2022-09-11T07:46:33.736Z,23.13
2022-09-11T07:49:21.911Z,25.92
2022-09-11T07:52:12.613Z,25.50
2022-09-11T07:55:04.577Z,29.27
2022-09-11T07:57:54.873Z,33.50
2022-09-11T08:00:42.962Z,36.70
2022-09-11T08:03:31.465Z,38.50
2022-09-11T08:06:22.513Z,39.70
2022-09-11T08:09:13.074Z,39.72
2022-09-11T08:12:02.056Z,37.45
2022-09-11T08:14:51.547Z,33.60
2022-09-11T08:17:39.743Z,37.53
2022-09-11T08:20:27.917Z,31.35
2022-09-11T08:23:16.452Z,33.40
2022-09-11T08:26:06.553Z,28.45
2022-09-11T08:28:56.452Z,30.92
2022-09-11T08:31:46.748Z,28.75
2022-09-11T08:34:35.082Z,25.80
2022-09-11T08:37:23.425Z,29.58
2022-09-11T08:40:11.951Z,22.65
2022-09-11T08:43:03.682Z,23.98
2022-09-11T08:45:56.408Z,23.73
2022-09-11T08:48:53.126Z,19.50
2022-09-11T08:51:41.548Z,17.40
2022-09-11T08:54:33.463Z,22.02
2022-09-11T08:57:28.960Z,21.83
2022-09-11T09:00:21.516Z,18.77
2022-09-11T09:03:37.045Z,16.40
2022-09-11T09:06:41.002Z,18.98
2022-09-11T09:09:39.569Z,16.98
2022-09-11T09:12:36.686Z,14.48
2022-09-11T09:15:34.450Z,18.25
2022-09-11T09:18:28.895Z,16.95
2022-09-11T09:21:25.071Z,17.48
2022-09-11T09:24:20.581Z,21.77
2022-09-11T09:27:16.142Z,15.38
2022-09-11T09:30:07.789Z,14.10
2022-09-11T09:33:01.042Z,18.20
2022-09-11T09:35:52.320Z,13.18
2022-09-11T09:38:41.440Z,17.52
2022-09-11T09:42:06.041Z,15.07
2022-09-11T09:45:03.578Z,13.38
2022-09-11T09:47:51.989Z,12.48
2022-09-11T09:50:43.998Z,12.63
2022-09-11T09:53:40.800Z,10.65
2022-09-11T09:56:31.639Z,9.55
2022-09-11T10:02:12.196Z,9.20
2022-09-11T10:05:16.938Z,9.93
2022-09-11T10:08:06.982Z,11.82
2022-09-11T10:10:58.032Z,11.40
2022-09-11T10:13:55.360Z,8.75
2022-09-11T10:16:50.243Z,10.77
2022-09-11T10:19:41.588Z,11.32
2022-09-11T10:22:32.357Z,10.93
2022-09-11T10:28:15.096Z,11.48
2022-09-11T10:31:05.324Z,10.45
2022-09-11T10:33:57.324Z,10.38
2022-09-11T10:36:54.005Z,10.52
2022-09-11T10:39:45.002Z,9.48
2022-09-11T10:42:37.810Z,11.50
2022-09-11T10:45:26.639Z,10.07
2022-09-11T10:48:24.057Z,8.88
2022-09-11T10:51:14.079Z,10.98
2022-09-11T10:54:15.667Z,9.35
2022-09-11T10:57:13.268Z,8.27
2022-09-11T11:00:07.980Z,10.93
2022-09-11T11:02:58.806Z,8.43
2022-09-11T11:09:05.421Z,13.45
2022-09-11T11:12:10.869Z,12.32
2022-09-11T11:15:13.716Z,11.70
2022-09-11T11:18:31.373Z,10.40
2022-09-11T11:21:32.602Z,9.73
2022-09-11T11:24:38.180Z,9.48
2022-09-11T11:28:02.072Z,11.25
2022-09-11T11:31:00.917Z,7.53
2022-09-11T11:34:14.208Z,9.05
2022-09-11T11:37:07.518Z,11.18
2022-09-11T11:40:01.205Z,8.63
2022-09-11T11:42:56.363Z,9.27
2022-09-11T11:45:47.919Z,10.95
2022-09-11T11:48:45.115Z,9.48
2022-09-11T11:51:39.810Z,8.15
2022-09-11T11:54:34.060Z,8.38
2022-09-11T11:57:27.496Z,10.07
2022-09-11T12:00:19.242Z,8.55
2022-09-11T12:03:16.353Z,5.80
2022-09-11T12:06:07.539Z,8.18
2022-09-11T12:08:56.396Z,7.18
2022-09-11T12:11:47.545Z,8.05
2022-09-11T12:14:38.417Z,8.52
2022-09-11T12:17:29.830Z,8.35
2022-09-11T12:20:37.194Z,8.00
2022-09-11T12:23:35.521Z,8.80
2022-09-11T12:26:26.263Z,7.00
2022-09-11T12:29:51.745Z,6.30
2022-09-11T12:32:46.711Z,8.68
2022-09-11T12:35:43.764Z,7.93
2022-09-11T12:38:41.502Z,7.55
2022-09-11T12:41:31.716Z,5.82
2022-09-11T12:44:54.332Z,6.53
2022-09-11T12:47:45.046Z,5.63
2022-09-11T12:53:25.620Z,6.47
2022-09-11T12:56:20.311Z,8.13
2022-09-11T12:59:11.016Z,6.35
2022-09-11T13:01:59.509Z,7.15
2022-09-11T13:04:49.602Z,5.20
2022-09-11T13:07:43.588Z,7.03
2022-09-11T13:10:35.156Z,7.00
2022-09-11T13:13:44.539Z,5.25
2022-09-11T13:16:34.893Z,5.88
2022-09-11T13:19:23.765Z,4.65
2022-09-11T13:22:27.937Z,5.00
2022-09-11T13:25:18.183Z,4.40
2022-09-11T13:28:07.774Z,5.80
2022-09-11T13:31:00.424Z,5.15
2022-09-11T13:33:50.891Z,4.50
2022-09-11T13:36:40.640Z,5.43
2022-09-11T13:39:40.917Z,4.70
2022-09-11T13:42:29.702Z,8.70
2022-09-11T13:45:20.203Z,4.07
2022-09-11T13:48:14.210Z,5.38
2022-09-11T13:51:04.993Z,6.50
2022-09-11T13:53:59.366Z,4.60
2022-09-11T13:57:13.216Z,5.15
2022-09-11T14:00:01.779Z,9.88
2022-09-11T14:02:52.576Z,4.93
2022-09-11T14:05:49.484Z,6.35
2022-09-11T14:08:40.874Z,5.55
2022-09-11T14:11:31.772Z,8.93
2022-09-11T14:14:26.273Z,5.60
2022-09-11T14:17:17.186Z,5.70
2022-09-11T14:20:06.028Z,6.30
2022-09-11T14:22:56.544Z,6.43
2022-09-11T14:29:01.427Z,6.55
2022-09-11T14:31:52.067Z,6.65
2022-09-11T14:34:40.200Z,6.22
2022-09-11T14:37:31.247Z,6.47
2022-09-11T14:40:21.169Z,7.35
2022-09-11T14:43:11.924Z,5.38
2022-09-11T14:46:01.416Z,8.60
2022-09-11T14:48:51.429Z,7.10
2022-09-11T14:51:40.783Z,6.90
2022-09-11T14:54:32.022Z,7.22
2022-09-11T14:57:22.869Z,7.15
2022-09-11T15:00:14.612Z,6.75
2022-09-11T15:03:04.144Z,7.43
2022-09-11T15:05:56.430Z,5.78
2022-09-11T15:08:45.859Z,5.40
2022-09-11T15:11:37.497Z,5.15
2022-09-11T15:14:52.366Z,3.95
2022-09-11T15:17:36.378Z,6.80
2022-09-11T15:20:27.613Z,4.40
2022-09-11T15:23:17.480Z,5.75
2022-09-11T15:26:08.274Z,6.80
2022-09-11T15:28:56.762Z,6.35
2022-09-11T15:31:44.921Z,5.78
2022-09-11T15:34:33.245Z,5.47
2022-09-11T15:37:21.561Z,5.18
2022-09-11T15:40:11.792Z,6.15
2022-09-11T15:43:00.010Z,5.43
2022-09-11T15:45:48.253Z,4.28
2022-09-11T15:48:40.126Z,5.88
2022-09-11T15:51:28.330Z,6.50
2022-09-11T15:54:16.703Z,4.68
2022-09-11T15:57:06.814Z,5.80
2022-09-11T15:59:55.074Z,5.05
2022-09-11T16:02:43.323Z,4.82
2022-09-11T16:05:32.448Z,5.53
2022-09-11T16:08:22.118Z,6.63
2022-09-11T16:11:11.990Z,5.47
2022-09-11T16:14:02.141Z,4.93
2022-09-11T16:16:50.763Z,4.43
2022-09-11T16:19:39.456Z,4.13
2022-09-11T16:22:31.268Z,3.97
2022-09-11T16:25:20.557Z,4.78
2022-09-11T16:28:09.480Z,4.38
2022-09-11T16:30:59.035Z,6.60
2022-09-11T16:33:48.639Z,4.53
2022-09-11T16:36:38.759Z,3.97
2022-09-11T16:39:27.501Z,4.85
2022-09-11T16:42:15.656Z,3.20
2022-09-11T16:45:03.932Z,3.78
2022-09-11T16:47:53.410Z,3.83
2022-09-11T16:50:41.533Z,4.43
2022-09-11T16:53:32.864Z,3.85
2022-09-11T16:56:23.197Z,3.88
2022-09-11T16:59:11.340Z,6.45
2022-09-11T17:02:00.214Z,3.90
2022-09-11T17:04:49.898Z,7.10
2022-09-11T17:07:38.621Z,5.50
2022-09-11T17:10:26.739Z,4.97
2022-09-11T17:13:15.199Z,5.00
2022-09-11T17:16:04.198Z,4.40
2022-09-11T17:18:54.483Z,5.82
2022-09-11T17:21:43.941Z,4.00
2022-09-11T17:24:32.094Z,5.85
2022-09-11T17:27:20.232Z,5.97
2022-09-11T17:30:09.630Z,5.28
2022-09-11T17:32:58.109Z,8.20
2022-09-11T17:35:46.979Z,4.97
2022-09-11T17:38:36.738Z,4.78
2022-09-11T17:41:24.943Z,6.35
2022-09-11T17:44:14.055Z,5.28
2022-09-11T17:47:02.576Z,5.97
2022-09-11T17:49:50.912Z,5.80
2022-09-11T17:52:39.045Z,5.28
2022-09-11T17:55:29.503Z,7.75
2022-09-11T17:58:17.645Z,4.93
2022-09-11T18:01:07.398Z,5.43
2022-09-11T18:03:56.933Z,5.15
2022-09-11T18:06:45.452Z,6.25
2022-09-11T18:09:33.802Z,6.70
2022-09-11T18:12:25.784Z,7.55
2022-09-11T18:15:13.911Z,8.98
2022-09-11T18:18:02.202Z,8.70
2022-09-11T18:20:53.941Z,6.05
2022-09-11T18:23:44.194Z,7.43
2022-09-11T18:26:34.464Z,8.35
2022-09-11T18:29:23.970Z,6.97
2022-09-11T18:32:12.096Z,8.25
2022-09-11T18:35:00.354Z,7.65
2022-09-11T18:37:48.782Z,7.22
2022-09-11T18:40:37.014Z,5.50
2022-09-11T18:43:25.148Z,6.38
2022-09-11T18:46:14.714Z,7.32
2022-09-11T18:49:03.417Z,7.70
2022-09-11T18:51:51.929Z,7.22
2022-09-11T18:54:40.075Z,6.68
2022-09-11T18:57:28.672Z,6.32
2022-09-11T19:00:17.984Z,7.63
2022-09-11T19:03:07.467Z,7.40
2022-09-11T19:06:01.824Z,5.93
2022-09-11T19:08:51.176Z,7.65
2022-09-11T19:11:39.731Z,7.55
2022-09-11T19:14:27.927Z,6.28
2022-09-11T19:17:16.086Z,6.72
2022-09-11T19:20:08.024Z,6.70
2022-09-11T19:22:59.669Z,4.40
2022-09-11T19:25:50.255Z,7.45
2022-09-11T19:28:39.373Z,10.38
2022-09-11T19:31:29.519Z,5.57
2022-09-11T19:34:17.847Z,6.97
2022-09-11T19:37:11.976Z,6.97
2022-09-11T19:40:00.739Z,7.68
2022-09-11T19:42:49.067Z,7.78
2022-09-11T19:45:39.765Z,6.10
2022-09-11T19:48:27.985Z,6.72
2022-09-11T19:51:18.371Z,7.53
2022-09-11T19:54:08.421Z,6.80
2022-09-11T19:56:57.039Z,7.05
2022-09-11T19:59:45.183Z,7.28
2022-09-11T20:02:33.860Z,5.80
2022-09-11T20:05:22.502Z,8.05
2022-09-11T20:08:16.177Z,6.25
2022-09-11T20:11:08.286Z,4.88
2022-09-11T20:14:00.301Z,5.93
2022-09-11T20:16:55.341Z,4.97
2022-09-11T20:19:44.778Z,7.13
2022-09-11T20:22:32.894Z,4.80
2022-09-11T20:25:21.002Z,5.40
2022-09-11T20:28:10.594Z,5.90
2022-09-11T20:31:00.416Z,5.57
2022-09-11T20:33:49.540Z,6.13
2022-09-11T20:36:37.756Z,7.38
2022-09-11T20:39:25.871Z,4.75
2022-09-11T20:42:14.058Z,8.98
2022-09-11T20:45:03.622Z,7.47
2022-09-11T20:47:51.745Z,7.63
2022-09-11T20:50:39.902Z,6.13
2022-09-11T20:53:28.390Z,5.97
2022-09-11T20:56:20.315Z,5.22
2022-09-11T20:59:08.716Z,5.05
2022-09-11T21:01:58.241Z,6.45
2022-09-11T21:04:46.439Z,6.25
2022-09-11T21:07:34.693Z,6.35
2022-09-11T21:10:22.848Z,5.30
2022-09-11T21:13:11.796Z,6.65
2022-09-11T21:16:00.015Z,7.07
2022-09-11T21:18:52.051Z,5.88
2022-09-11T21:21:40.383Z,5.07
2022-09-11T21:24:28.669Z,6.13
2022-09-11T21:27:16.829Z,5.07
2022-09-11T21:30:05.760Z,6.13
2022-09-11T21:32:54.319Z,4.82
2022-09-11T21:35:44.169Z,5.18
2022-09-11T21:38:32.708Z,5.68
2022-09-11T21:41:21.184Z,6.95
2022-09-11T21:44:09.533Z,6.45
2022-09-11T21:46:57.720Z,6.90
2022-09-11T21:49:45.892Z,5.90
2022-09-11T21:52:35.944Z,6.88
2022-09-11T21:55:24.131Z,6.80
2022-09-11T21:58:16.372Z,9.07
2022-09-11T22:01:08.567Z,6.25
2022-09-11T22:03:56.957Z,6.72
2022-09-11T22:06:45.247Z,6.45
2022-09-11T22:09:35.423Z,6.35
2022-09-11T22:12:23.575Z,5.93
2022-09-11T22:15:12.328Z,5.25
2022-09-11T22:18:00.480Z,4.95
2022-09-11T22:20:49.622Z,5.20
2022-09-11T22:23:38.061Z,6.50
2022-09-11T22:26:30.103Z,6.63
2022-09-11T22:29:18.281Z,5.97
2022-09-11T22:32:07.185Z,5.80
2022-09-11T22:34:55.361Z,5.20
2022-09-11T22:37:43.504Z,4.88
2022-09-11T22:40:31.807Z,5.75
2022-09-11T22:43:21.579Z,5.97
2022-09-11T22:46:09.835Z,6.88
2022-09-11T22:48:58.000Z,6.07
2022-09-11T22:51:46.130Z,6.55
2022-09-11T22:54:34.264Z,7.18
2022-09-11T22:57:22.391Z,6.85
2022-09-11T23:00:14.661Z,7.40
2022-09-11T23:03:02.869Z,6.30
2022-09-11T23:06:13.755Z,9.18
2022-09-11T23:09:04.588Z,7.45
2022-09-11T23:11:52.688Z,6.28
2022-09-11T23:14:40.828Z,5.85
2022-09-11T23:17:30.277Z,7.55
2022-09-11T23:20:19.064Z,6.57
2022-09-11T23:23:07.191Z,7.45
2022-09-11T23:25:55.321Z,7.03
2022-09-11T23:28:44.069Z,6.70
2022-09-11T23:31:34.612Z,8.02
2022-09-11T23:34:24.147Z,8.20
2022-09-11T23:37:12.284Z,8.43
2022-09-11T23:40:00.486Z,6.95
2022-09-11T23:42:48.647Z,7.38
2022-09-11T23:45:36.820Z,6.82
2022-09-11T23:48:25.019Z,6.72
2022-09-11T23:51:15.614Z,6.95
2022-09-11T23:54:03.827Z,6.72
2022-09-11T23:56:51.925Z,6.63
2022-09-11T23:59:40.075Z,6.65
